QFA846 PAJN-PANC
Flight info
| Callsign | QFA846 |
|---|---|
| Flight time | 1h 36m |
| Altitude | 36000 |
| Route | ASORT3 ASORT J541 YAK J501 JOH PTERS3 |
| Aircraft | B738/M-SDE2E3FGHIRWXY/LB1 |
Departure
| Time | 2026-04-22 10:02 |
|---|---|
| Airport | Juneau International Airport (PAJN) |
Arrival
| Time | 2026-04-22 11:38 |
|---|---|
| Airport | Ted Stevens Anchorage International Airport (PANC) |
| Time | Latitude | Longitude | Altitude | Speed | Heading |
|---|---|---|---|---|---|
| 2026-04-22 09:20 | 37.93460 | 23.94702 | 318 ft | 0 kts | 307° |
| 2026-04-22 09:20 | 58.35933 | -134.58466 | 2758 ft | 0 kts | 94° |
| 2026-04-22 09:39 | 58.35943 | -134.58465 | 31 ft | 0 kts | 94° |
| 2026-04-22 09:39 | 58.35866 | -134.58449 | 31 ft | 0 kts | 94° |
| 2026-04-22 09:40 | 58.35933 | -134.58455 | 31 ft | 0 kts | 94° |
| 2026-04-22 09:49 | 58.35935 | -134.58493 | 31 ft | 4 kts | 95° |
| 2026-04-22 09:49 | 58.35938 | -134.58544 | 31 ft | 6 kts | 92° |
| 2026-04-22 09:49 | 58.35934 | -134.58592 | 31 ft | 7 kts | 60° |
| 2026-04-22 09:49 | 58.35918 | -134.58621 | 31 ft | 6 kts | 3° |
| 2026-04-22 09:50 | 58.35914 | -134.58621 | 31 ft | 8 kts | 359° |
| 2026-04-22 09:51 | 58.35917 | -134.58621 | 38 ft | 9 kts | 359° |
| 2026-04-22 09:51 | 58.35922 | -134.58621 | 31 ft | 0 kts | 359° |
| 2026-04-22 09:52 | 58.35925 | -134.58622 | 31 ft | 0 kts | 354° |
| 2026-04-22 09:52 | 58.35930 | -134.58624 | 31 ft | 1 kts | 341° |
| 2026-04-22 09:52 | 58.35952 | -134.58637 | 31 ft | 6 kts | 345° |
| 2026-04-22 09:52 | 58.35965 | -134.58643 | 31 ft | 0 kts | 348° |
| 2026-04-22 09:53 | 58.35977 | -134.58640 | 31 ft | 4 kts | 30° |
| 2026-04-22 09:53 | 58.35977 | -134.58628 | 31 ft | 0 kts | 156° |
| 2026-04-22 09:53 | 58.35968 | -134.58621 | 31 ft | 0 kts | 160° |
| 2026-04-22 09:54 | 58.35964 | -134.58618 | 31 ft | 2 kts | 163° |
| 2026-04-22 09:54 | 58.35941 | -134.58612 | 31 ft | 4 kts | 175° |
| 2026-04-22 09:54 | 58.35902 | -134.58612 | 31 ft | 6 kts | 185° |
| 2026-04-22 09:54 | 58.35853 | -134.58622 | 31 ft | 7 kts | 183° |
| 2026-04-22 09:55 | 58.35804 | -134.58620 | 31 ft | 7 kts | 172° |
| 2026-04-22 09:55 | 58.35773 | -134.58602 | 31 ft | 1 kts | 157° |
| 2026-04-22 09:55 | 58.35763 | -134.58591 | 31 ft | 0 kts | 144° |
| 2026-04-22 09:56 | 58.35750 | -134.58570 | 31 ft | 6 kts | 127° |
| 2026-04-22 09:56 | 58.35738 | -134.58515 | 31 ft | 0 kts | 111° |
| 2026-04-22 09:56 | 58.35733 | -134.58491 | 31 ft | 1 kts | 105° |
| 2026-04-22 09:56 | 58.35733 | -134.58490 | 31 ft | 0 kts | 104° |
| 2026-04-22 09:58 | 58.35724 | -134.58422 | 31 ft | 13 kts | 105° |
| 2026-04-22 09:58 | 58.35689 | -134.58188 | 31 ft | 23 kts | 108° |
| 2026-04-22 09:59 | 58.35644 | -134.57850 | 31 ft | 30 kts | 104° |
| 2026-04-22 09:59 | 58.35589 | -134.57436 | 31 ft | 34 kts | 107° |
| 2026-04-22 09:59 | 58.35525 | -134.56991 | 31 ft | 36 kts | 105° |
| 2026-04-22 09:59 | 58.35456 | -134.56520 | 31 ft | 35 kts | 107° |
| 2026-04-22 10:00 | 58.35389 | -134.56000 | 31 ft | 45 kts | 107° |
| 2026-04-22 10:00 | 58.35295 | -134.55542 | 32 ft | 25 kts | 156° |
| 2026-04-22 10:00 | 58.35227 | -134.55679 | 32 ft | 23 kts | 281° |
| 2026-04-22 10:00 | 58.35231 | -134.55719 | 32 ft | 0 kts | 285° |
| 2026-04-22 10:01 | 58.35232 | -134.55720 | 32 ft | 0 kts | 285° |
| 2026-04-22 10:01 | 58.35283 | -134.56096 | 31 ft | 65 kts | 285° |
| 2026-04-22 10:01 | 58.35460 | -134.57373 | 31 ft | 132 kts | 285° |
| 2026-04-22 10:01 | 58.35742 | -134.59357 | 257 ft | 166 kts | 285° |
| 2026-04-22 10:02 | 58.36054 | -134.61482 | 1052 ft | 165 kts | 286° |
| 2026-04-22 10:02 | 58.36369 | -134.63514 | 1968 ft | 155 kts | 286° |
| 2026-04-22 10:02 | 58.36448 | -134.65580 | 2714 ft | 168 kts | 258° |
| 2026-04-22 10:02 | 58.36115 | -134.67878 | 3543 ft | 188 kts | 260° |
| 2026-04-22 10:03 | 58.35969 | -134.70321 | 4960 ft | 182 kts | 268° |
| 2026-04-22 10:03 | 58.35917 | -134.72632 | 6442 ft | 171 kts | 271° |
| 2026-04-22 10:03 | 58.35969 | -134.75088 | 7206 ft | 199 kts | 272° |
| 2026-04-22 10:03 | 58.36003 | -134.77854 | 8205 ft | 219 kts | 271° |
| 2026-04-22 10:04 | 58.36021 | -134.80884 | 9253 ft | 239 kts | 271° |
| 2026-04-22 10:04 | 58.36036 | -134.84195 | 10268 ft | 261 kts | 271° |
| 2026-04-22 10:04 | 58.36053 | -134.87765 | 11374 ft | 273 kts | 272° |
| 2026-04-22 10:04 | 58.36072 | -134.91336 | 12892 ft | 273 kts | 274° |
| 2026-04-22 10:05 | 58.36090 | -134.94980 | 14151 ft | 277 kts | 274° |
| 2026-04-22 10:05 | 58.36107 | -134.98685 | 15316 ft | 283 kts | 274° |
| 2026-04-22 10:05 | 58.36120 | -135.02353 | 16847 ft | 268 kts | 276° |
| 2026-04-22 10:05 | 58.36135 | -135.05990 | 17780 ft | 282 kts | 276° |
| 2026-04-22 10:06 | 58.36153 | -135.09715 | 18869 ft | 282 kts | 276° |
| 2026-04-22 10:06 | 58.36167 | -135.13480 | 19803 ft | 287 kts | 276° |
| 2026-04-22 10:06 | 58.36178 | -135.17318 | 20657 ft | 292 kts | 276° |
| 2026-04-22 10:06 | 58.36187 | -135.21211 | 21542 ft | 294 kts | 277° |
| 2026-04-22 10:07 | 58.36192 | -135.25046 | 22632 ft | 290 kts | 278° |
| 2026-04-22 10:07 | 58.36203 | -135.28936 | 23279 ft | 297 kts | 278° |
| 2026-04-22 10:07 | 58.36216 | -135.32910 | 23963 ft | 302 kts | 278° |
| 2026-04-22 10:07 | 58.36224 | -135.36934 | 24663 ft | 306 kts | 278° |
| 2026-04-22 10:08 | 58.36228 | -135.41004 | 25305 ft | 310 kts | 277° |
| 2026-04-22 10:08 | 58.36233 | -135.45139 | 25913 ft | 314 kts | 277° |
| 2026-04-22 10:08 | 58.36238 | -135.49312 | 26525 ft | 317 kts | 277° |
| 2026-04-22 10:08 | 58.36247 | -135.53531 | 27106 ft | 320 kts | 278° |
| 2026-04-22 10:09 | 58.36256 | -135.57747 | 27825 ft | 317 kts | 278° |
| 2026-04-22 10:09 | 58.36265 | -135.61969 | 28349 ft | 321 kts | 278° |
| 2026-04-22 10:09 | 58.36275 | -135.66247 | 28786 ft | 326 kts | 278° |
| 2026-04-22 10:09 | 58.36281 | -135.70587 | 29248 ft | 329 kts | 278° |
| 2026-04-22 10:10 | 58.36283 | -135.74953 | 29727 ft | 331 kts | 278° |
| 2026-04-22 10:10 | 58.36445 | -135.79300 | 30154 ft | 328 kts | 286° |
| 2026-04-22 10:10 | 58.37033 | -135.83469 | 30528 ft | 325 kts | 295° |
| 2026-04-22 10:10 | 58.37974 | -135.87382 | 30943 ft | 325 kts | 301° |
| 2026-04-22 10:11 | 58.39116 | -135.91106 | 31337 ft | 326 kts | 304° |
| 2026-04-22 10:11 | 58.40357 | -135.94745 | 31704 ft | 329 kts | 304° |
| 2026-04-22 10:11 | 58.41591 | -135.98433 | 32056 ft | 331 kts | 304° |
| 2026-04-22 10:11 | 58.42807 | -136.02157 | 32520 ft | 330 kts | 303° |
| 2026-04-22 10:12 | 58.44002 | -136.05900 | 32874 ft | 332 kts | 303° |
| 2026-04-22 10:12 | 58.45209 | -136.09687 | 33127 ft | 336 kts | 303° |
| 2026-04-22 10:12 | 58.46429 | -136.13497 | 33471 ft | 336 kts | 303° |
| 2026-04-22 10:12 | 58.47653 | -136.17313 | 33787 ft | 338 kts | 303° |
| 2026-04-22 10:13 | 58.48887 | -136.21148 | 34050 ft | 340 kts | 303° |
| 2026-04-22 10:13 | 58.50129 | -136.25018 | 34297 ft | 343 kts | 303° |
| 2026-04-22 10:13 | 58.51377 | -136.28923 | 34531 ft | 345 kts | 303° |
| 2026-04-22 10:13 | 58.52632 | -136.32862 | 34764 ft | 348 kts | 303° |
| 2026-04-22 10:14 | 58.53894 | -136.36830 | 34986 ft | 350 kts | 303° |
| 2026-04-22 10:14 | 58.55162 | -136.40823 | 35202 ft | 352 kts | 303° |
| 2026-04-22 10:14 | 58.56436 | -136.44842 | 35452 ft | 353 kts | 302° |
| 2026-04-22 10:14 | 58.57711 | -136.48874 | 35736 ft | 354 kts | 302° |
| 2026-04-22 10:15 | 58.58554 | -136.51543 | 35916 ft | 354 kts | 302° |
| 2026-04-22 10:15 | 58.59846 | -136.55638 | 36146 ft | 355 kts | 302° |
| 2026-04-22 10:15 | 58.62384 | -136.63699 | 36244 ft | 355 kts | 302° |
| 2026-04-22 10:16 | 58.64922 | -136.71793 | 36253 ft | 354 kts | 302° |
| 2026-04-22 10:16 | 58.67456 | -136.79899 | 36257 ft | 354 kts | 302° |
| 2026-04-22 10:17 | 58.69985 | -136.88016 | 36252 ft | 354 kts | 302° |
| 2026-04-22 10:17 | 58.72507 | -136.96143 | 36252 ft | 354 kts | 302° |
| 2026-04-22 10:18 | 58.75028 | -137.04291 | 36252 ft | 355 kts | 302° |
| 2026-04-22 10:18 | 58.77549 | -137.12470 | 36252 ft | 355 kts | 302° |
| 2026-04-22 10:19 | 58.80062 | -137.20650 | 36251 ft | 355 kts | 302° |
| 2026-04-22 10:19 | 58.82570 | -137.28845 | 36252 ft | 355 kts | 302° |
| 2026-04-22 10:20 | 58.85048 | -137.36970 | 36248 ft | 347 kts | 301° |
| 2026-04-22 10:20 | 58.87489 | -137.45000 | 36250 ft | 347 kts | 301° |
| 2026-04-22 10:21 | 58.89928 | -137.53047 | 36250 ft | 347 kts | 301° |
| 2026-04-22 10:21 | 58.92363 | -137.61114 | 36252 ft | 347 kts | 301° |
| 2026-04-22 10:22 | 58.94792 | -137.69188 | 36252 ft | 347 kts | 301° |
| 2026-04-22 10:22 | 58.97211 | -137.77257 | 36251 ft | 345 kts | 301° |
| 2026-04-22 10:23 | 58.99625 | -137.85325 | 36252 ft | 346 kts | 301° |
| 2026-04-22 10:23 | 59.02025 | -137.93422 | 36252 ft | 346 kts | 301° |
| 2026-04-22 10:24 | 59.04413 | -138.01511 | 36253 ft | 345 kts | 301° |
| 2026-04-22 10:24 | 59.06828 | -138.09661 | 36255 ft | 352 kts | 300° |
| 2026-04-22 10:25 | 59.09263 | -138.17923 | 36252 ft | 352 kts | 300° |
| 2026-04-22 10:25 | 59.11686 | -138.26182 | 36256 ft | 352 kts | 300° |
| 2026-04-22 10:26 | 59.14102 | -138.34440 | 36255 ft | 350 kts | 300° |
| 2026-04-22 10:26 | 59.16512 | -138.42707 | 36256 ft | 351 kts | 300° |
| 2026-04-22 10:27 | 59.18933 | -138.51046 | 36257 ft | 351 kts | 300° |
| 2026-04-22 10:27 | 59.21335 | -138.59346 | 36257 ft | 351 kts | 300° |
| 2026-04-22 10:28 | 59.23715 | -138.67601 | 36258 ft | 351 kts | 300° |
| 2026-04-22 10:28 | 59.26106 | -138.75925 | 36259 ft | 351 kts | 300° |
| 2026-04-22 10:29 | 59.28490 | -138.84251 | 36259 ft | 351 kts | 300° |
| 2026-04-22 10:29 | 59.30871 | -138.92601 | 36260 ft | 352 kts | 300° |
| 2026-04-22 10:30 | 59.33254 | -139.00986 | 36261 ft | 352 kts | 300° |
| 2026-04-22 10:30 | 59.35630 | -139.09377 | 36259 ft | 352 kts | 300° |
| 2026-04-22 10:31 | 59.37999 | -139.17775 | 36257 ft | 352 kts | 299° |
| 2026-04-22 10:31 | 59.40362 | -139.26182 | 36258 ft | 352 kts | 299° |
| 2026-04-22 10:32 | 59.42713 | -139.34580 | 36259 ft | 351 kts | 299° |
| 2026-04-22 10:32 | 59.45059 | -139.42989 | 36261 ft | 351 kts | 299° |
| 2026-04-22 10:33 | 59.47400 | -139.51410 | 36261 ft | 351 kts | 299° |
| 2026-04-22 10:33 | 59.49740 | -139.59858 | 36262 ft | 351 kts | 299° |
| 2026-04-22 10:34 | 59.51872 | -139.68483 | 36262 ft | 351 kts | 292° |
| 2026-04-22 10:34 | 59.53387 | -139.77650 | 36263 ft | 352 kts | 290° |
| 2026-04-22 10:35 | 59.54855 | -139.86884 | 36262 ft | 354 kts | 290° |
| 2026-04-22 10:35 | 59.56402 | -139.96100 | 36261 ft | 354 kts | 290° |
| 2026-04-22 10:36 | 59.57961 | -140.05310 | 36260 ft | 355 kts | 290° |
| 2026-04-22 10:36 | 59.59505 | -140.14564 | 36258 ft | 355 kts | 290° |
| 2026-04-22 10:37 | 59.61798 | -140.28458 | 36255 ft | 355 kts | 290° |
| 2026-04-22 10:38 | 59.63327 | -140.37763 | 36253 ft | 356 kts | 290° |
| 2026-04-22 10:38 | 59.64847 | -140.47068 | 36250 ft | 356 kts | 290° |
| 2026-04-22 10:39 | 59.66365 | -140.56407 | 36246 ft | 357 kts | 290° |
| 2026-04-22 10:39 | 59.67878 | -140.65766 | 36245 ft | 358 kts | 290° |
| 2026-04-22 10:40 | 59.69386 | -140.75140 | 36242 ft | 357 kts | 289° |
| 2026-04-22 10:40 | 59.70888 | -140.84534 | 36239 ft | 358 kts | 289° |
| 2026-04-22 10:41 | 59.72388 | -140.93959 | 36236 ft | 359 kts | 289° |
| 2026-04-22 10:41 | 59.73882 | -141.03404 | 36232 ft | 359 kts | 289° |
| 2026-04-22 10:42 | 59.75367 | -141.12840 | 36230 ft | 359 kts | 289° |
| 2026-04-22 10:42 | 59.76847 | -141.22291 | 36226 ft | 359 kts | 289° |
| 2026-04-22 10:43 | 59.78318 | -141.31741 | 36223 ft | 358 kts | 289° |
| 2026-04-22 10:43 | 59.79779 | -141.41179 | 36220 ft | 358 kts | 289° |
| 2026-04-22 10:44 | 59.81235 | -141.50632 | 36219 ft | 358 kts | 289° |
| 2026-04-22 10:44 | 59.82683 | -141.60091 | 36215 ft | 358 kts | 289° |
| 2026-04-22 10:45 | 59.84124 | -141.69551 | 36212 ft | 357 kts | 288° |
| 2026-04-22 10:45 | 59.85551 | -141.78977 | 36210 ft | 356 kts | 288° |
| 2026-04-22 10:46 | 59.86974 | -141.88422 | 36208 ft | 357 kts | 288° |
| 2026-04-22 10:46 | 59.88390 | -141.97879 | 36212 ft | 356 kts | 288° |
| 2026-04-22 10:47 | 59.89799 | -142.07344 | 36240 ft | 357 kts | 288° |
| 2026-04-22 10:47 | 59.91196 | -142.16784 | 36241 ft | 351 kts | 288° |
| 2026-04-22 10:48 | 59.92569 | -142.26107 | 36243 ft | 352 kts | 288° |
| 2026-04-22 10:48 | 59.93942 | -142.35477 | 36241 ft | 352 kts | 288° |
| 2026-04-22 10:49 | 59.95308 | -142.44863 | 36242 ft | 353 kts | 288° |
| 2026-04-22 10:49 | 59.96668 | -142.54264 | 36243 ft | 353 kts | 288° |
| 2026-04-22 10:50 | 59.98047 | -142.63838 | 36244 ft | 362 kts | 288° |
| 2026-04-22 10:50 | 59.99436 | -142.73547 | 36241 ft | 364 kts | 288° |
| 2026-04-22 10:51 | 60.00807 | -142.83231 | 36241 ft | 359 kts | 287° |
| 2026-04-22 10:51 | 60.02152 | -142.92836 | 36242 ft | 360 kts | 287° |
| 2026-04-22 10:52 | 60.03513 | -143.02490 | 36242 ft | 361 kts | 287° |
| 2026-04-22 10:52 | 60.04864 | -143.12149 | 36241 ft | 360 kts | 287° |
| 2026-04-22 10:53 | 60.06208 | -143.21834 | 36240 ft | 362 kts | 287° |
| 2026-04-22 10:53 | 60.07547 | -143.31538 | 36242 ft | 363 kts | 287° |
| 2026-04-22 10:54 | 60.08883 | -143.41278 | 36242 ft | 363 kts | 287° |
| 2026-04-22 10:54 | 60.10215 | -143.51048 | 36242 ft | 364 kts | 287° |
| 2026-04-22 10:55 | 60.11542 | -143.60850 | 36244 ft | 364 kts | 287° |
| 2026-04-22 10:55 | 60.12864 | -143.70669 | 36243 ft | 365 kts | 287° |
| 2026-04-22 10:56 | 60.13958 | -143.78839 | 36243 ft | 365 kts | 287° |
| 2026-04-22 10:56 | 60.15266 | -143.88675 | 36245 ft | 366 kts | 287° |
| 2026-04-22 10:57 | 60.16573 | -143.98554 | 36245 ft | 366 kts | 286° |
| 2026-04-22 10:57 | 60.17870 | -144.08433 | 36245 ft | 366 kts | 286° |
| 2026-04-22 10:58 | 60.19161 | -144.18316 | 36246 ft | 366 kts | 286° |
| 2026-04-22 10:58 | 60.20441 | -144.28194 | 36246 ft | 364 kts | 286° |
| 2026-04-22 10:59 | 60.21712 | -144.38058 | 36247 ft | 365 kts | 286° |
| 2026-04-22 10:59 | 60.22978 | -144.47947 | 36248 ft | 365 kts | 286° |
| 2026-04-22 11:00 | 60.24237 | -144.57845 | 36248 ft | 365 kts | 286° |
| 2026-04-22 11:00 | 60.25486 | -144.67730 | 36248 ft | 363 kts | 285° |
| 2026-04-22 11:01 | 60.26720 | -144.77549 | 36249 ft | 360 kts | 285° |
| 2026-04-22 11:01 | 60.27935 | -144.87324 | 36251 ft | 361 kts | 285° |
| 2026-04-22 11:02 | 60.29151 | -144.97139 | 36250 ft | 361 kts | 285° |
| 2026-04-22 11:02 | 60.30358 | -145.06951 | 36249 ft | 360 kts | 285° |
| 2026-04-22 11:03 | 60.31555 | -145.16764 | 36252 ft | 361 kts | 285° |
| 2026-04-22 11:03 | 60.32753 | -145.26614 | 36252 ft | 362 kts | 285° |
| 2026-04-22 11:04 | 60.33944 | -145.36487 | 36252 ft | 362 kts | 285° |
| 2026-04-22 11:04 | 60.35126 | -145.46393 | 36252 ft | 363 kts | 285° |
| 2026-04-22 11:05 | 60.36306 | -145.56324 | 36258 ft | 364 kts | 285° |
| 2026-04-22 11:05 | 60.37483 | -145.66300 | 36263 ft | 367 kts | 284° |
| 2026-04-22 11:06 | 60.38658 | -145.76333 | 36264 ft | 367 kts | 285° |
| 2026-04-22 11:06 | 60.39827 | -145.86385 | 36264 ft | 367 kts | 284° |
| 2026-04-22 11:07 | 60.40988 | -145.96436 | 36266 ft | 367 kts | 284° |
| 2026-04-22 11:07 | 60.42141 | -146.06496 | 36267 ft | 367 kts | 284° |
| 2026-04-22 11:08 | 60.43286 | -146.16564 | 36269 ft | 367 kts | 284° |
| 2026-04-22 11:08 | 60.44424 | -146.26634 | 36271 ft | 367 kts | 284° |
| 2026-04-22 11:09 | 60.45553 | -146.36700 | 36269 ft | 366 kts | 284° |
| 2026-04-22 11:09 | 60.46673 | -146.46761 | 36262 ft | 366 kts | 284° |
| 2026-04-22 11:10 | 60.47835 | -146.56806 | 36258 ft | 364 kts | 288° |
| 2026-04-22 11:10 | 60.50159 | -146.65890 | 36261 ft | 366 kts | 304° |
| 2026-04-22 11:11 | 60.53301 | -146.74036 | 36259 ft | 365 kts | 305° |
| 2026-04-22 11:11 | 60.56370 | -146.82263 | 36259 ft | 365 kts | 304° |
| 2026-04-22 11:12 | 60.59398 | -146.90566 | 36259 ft | 366 kts | 304° |
| 2026-04-22 11:12 | 60.62424 | -146.98871 | 36258 ft | 364 kts | 304° |
| 2026-04-22 11:13 | 60.65433 | -147.07163 | 36257 ft | 364 kts | 304° |
| 2026-04-22 11:13 | 60.68385 | -147.15558 | 36209 ft | 362 kts | 303° |
| 2026-04-22 11:13 | 60.69836 | -147.19693 | 35844 ft | 355 kts | 303° |
| 2026-04-22 11:14 | 60.71265 | -147.23768 | 35342 ft | 351 kts | 303° |
| 2026-04-22 11:14 | 60.72681 | -147.27811 | 34826 ft | 348 kts | 303° |
| 2026-04-22 11:14 | 60.74082 | -147.31815 | 34340 ft | 345 kts | 303° |
| 2026-04-22 11:14 | 60.75467 | -147.35777 | 33875 ft | 340 kts | 303° |
| 2026-04-22 11:15 | 60.76833 | -147.39689 | 33426 ft | 336 kts | 303° |
| 2026-04-22 11:15 | 60.78205 | -147.43634 | 32974 ft | 347 kts | 303° |
| 2026-04-22 11:15 | 60.79636 | -147.47761 | 32494 ft | 361 kts | 303° |
| 2026-04-22 11:15 | 60.81087 | -147.51943 | 32003 ft | 357 kts | 303° |
| 2026-04-22 11:16 | 60.82517 | -147.56055 | 31524 ft | 351 kts | 303° |
| 2026-04-22 11:16 | 60.83920 | -147.60105 | 31064 ft | 346 kts | 303° |
| 2026-04-22 11:16 | 60.85319 | -147.64163 | 30619 ft | 355 kts | 302° |
| 2026-04-22 11:16 | 60.86780 | -147.68413 | 30159 ft | 371 kts | 303° |
| 2026-04-22 11:17 | 60.88267 | -147.72735 | 29678 ft | 367 kts | 303° |
| 2026-04-22 11:17 | 60.89726 | -147.76975 | 29198 ft | 360 kts | 302° |
| 2026-04-22 11:17 | 60.91155 | -147.81140 | 28728 ft | 353 kts | 302° |
| 2026-04-22 11:17 | 60.92551 | -147.85221 | 28273 ft | 346 kts | 302° |
| 2026-04-22 11:18 | 60.93922 | -147.89234 | 27827 ft | 341 kts | 302° |
| 2026-04-22 11:18 | 60.95301 | -147.93286 | 27392 ft | 353 kts | 302° |
| 2026-04-22 11:18 | 60.96722 | -147.97468 | 26933 ft | 355 kts | 302° |
| 2026-04-22 11:18 | 60.98123 | -148.01579 | 26478 ft | 348 kts | 301° |
| 2026-04-22 11:19 | 60.99497 | -148.05627 | 26024 ft | 341 kts | 301° |
| 2026-04-22 11:19 | 61.00849 | -148.09628 | 25587 ft | 342 kts | 301° |
| 2026-04-22 11:19 | 61.02235 | -148.13763 | 25142 ft | 356 kts | 301° |
| 2026-04-22 11:19 | 61.03633 | -148.17924 | 24680 ft | 349 kts | 301° |
| 2026-04-22 11:20 | 61.05009 | -148.21997 | 24229 ft | 342 kts | 301° |
| 2026-04-22 11:20 | 61.06356 | -148.25988 | 23784 ft | 335 kts | 301° |
| 2026-04-22 11:20 | 61.07672 | -148.29905 | 23349 ft | 328 kts | 301° |
| 2026-04-22 11:20 | 61.08958 | -148.33746 | 22927 ft | 322 kts | 301° |
| 2026-04-22 11:21 | 61.10235 | -148.37576 | 22515 ft | 329 kts | 301° |
| 2026-04-22 11:21 | 61.11554 | -148.41548 | 22091 ft | 336 kts | 301° |
| 2026-04-22 11:21 | 61.12869 | -148.45485 | 21655 ft | 329 kts | 301° |
| 2026-04-22 11:21 | 61.14075 | -148.49438 | 21236 ft | 320 kts | 295° |
| 2026-04-22 11:22 | 61.14985 | -148.53560 | 20804 ft | 311 kts | 289° |
| 2026-04-22 11:22 | 61.15688 | -148.57765 | 20373 ft | 307 kts | 287° |
| 2026-04-22 11:22 | 61.16382 | -148.61995 | 19956 ft | 318 kts | 288° |
| 2026-04-22 11:22 | 61.17129 | -148.66326 | 19520 ft | 317 kts | 288° |
| 2026-04-22 11:23 | 61.17867 | -148.70590 | 19080 ft | 312 kts | 288° |
| 2026-04-22 11:23 | 61.18594 | -148.74773 | 18647 ft | 305 kts | 288° |
| 2026-04-22 11:23 | 61.19307 | -148.78866 | 18222 ft | 299 kts | 288° |
| 2026-04-22 11:23 | 61.20003 | -148.82876 | 17813 ft | 293 kts | 288° |
| 2026-04-22 11:24 | 61.20692 | -148.86861 | 17410 ft | 297 kts | 288° |
| 2026-04-22 11:24 | 61.21407 | -148.90975 | 16998 ft | 305 kts | 288° |
| 2026-04-22 11:24 | 61.22112 | -148.95033 | 16579 ft | 301 kts | 288° |
| 2026-04-22 11:24 | 61.22815 | -148.99083 | 16157 ft | 294 kts | 288° |
| 2026-04-22 11:25 | 61.23497 | -149.03022 | 15747 ft | 288 kts | 288° |
| 2026-04-22 11:25 | 61.24169 | -149.06944 | 15346 ft | 282 kts | 287° |
| 2026-04-22 11:25 | 61.24634 | -149.10813 | 14960 ft | 281 kts | 279° |
| 2026-04-22 11:25 | 61.24886 | -149.15014 | 14521 ft | 312 kts | 274° |
| 2026-04-22 11:26 | 61.25104 | -149.19559 | 14038 ft | 316 kts | 275° |
| 2026-04-22 11:26 | 61.25368 | -149.24075 | 13524 ft | 313 kts | 276° |
| 2026-04-22 11:26 | 61.25636 | -149.28596 | 13011 ft | 310 kts | 276° |
| 2026-04-22 11:26 | 61.25898 | -149.33028 | 12509 ft | 307 kts | 276° |
| 2026-04-22 11:27 | 61.26155 | -149.37365 | 12021 ft | 306 kts | 276° |
| 2026-04-22 11:27 | 61.26413 | -149.41731 | 11539 ft | 304 kts | 276° |
| 2026-04-22 11:27 | 61.26668 | -149.46064 | 11092 ft | 300 kts | 276° |
| 2026-04-22 11:27 | 61.26913 | -149.50316 | 10800 ft | 291 kts | 276° |
| 2026-04-22 11:28 | 61.27146 | -149.54414 | 10663 ft | 280 kts | 276° |
| 2026-04-22 11:28 | 61.27367 | -149.58352 | 10548 ft | 271 kts | 276° |
| 2026-04-22 11:28 | 61.27591 | -149.62287 | 10428 ft | 275 kts | 275° |
| 2026-04-22 11:28 | 61.27817 | -149.66271 | 10292 ft | 281 kts | 274° |
| 2026-04-22 11:29 | 61.28125 | -149.70249 | 10144 ft | 278 kts | 282° |
| 2026-04-22 11:29 | 61.28858 | -149.73947 | 10013 ft | 275 kts | 295° |
| 2026-04-22 11:29 | 61.29815 | -149.77384 | 9762 ft | 274 kts | 298° |
| 2026-04-22 11:29 | 61.30830 | -149.80746 | 9443 ft | 274 kts | 299° |
| 2026-04-22 11:30 | 61.31842 | -149.84086 | 9111 ft | 271 kts | 298° |
| 2026-04-22 11:30 | 61.32815 | -149.87420 | 8800 ft | 268 kts | 297° |
| 2026-04-22 11:30 | 61.33779 | -149.90735 | 8499 ft | 266 kts | 297° |
| 2026-04-22 11:30 | 61.34781 | -149.93968 | 8196 ft | 268 kts | 308° |
| 2026-04-22 11:31 | 61.36281 | -149.96291 | 7816 ft | 276 kts | 332° |
| 2026-04-22 11:31 | 61.38162 | -149.97644 | 6981 ft | 293 kts | 346° |
| 2026-04-22 11:31 | 61.40026 | -149.98962 | 6736 ft | 278 kts | 322° |
| 2026-04-22 11:31 | 61.41200 | -150.01876 | 6511 ft | 255 kts | 286° |
| 2026-04-22 11:32 | 61.41329 | -150.05335 | 6300 ft | 232 kts | 251° |
| 2026-04-22 11:32 | 61.40613 | -150.08167 | 6063 ft | 215 kts | 223° |
| 2026-04-22 11:32 | 61.39416 | -150.09802 | 5839 ft | 202 kts | 196° |
| 2026-04-22 11:32 | 61.38061 | -150.10186 | 5552 ft | 195 kts | 177° |
| 2026-04-22 11:33 | 61.36829 | -150.09237 | 5287 ft | 187 kts | 150° |
| 2026-04-22 11:33 | 61.35794 | -150.07792 | 5108 ft | 170 kts | 150° |
| 2026-04-22 11:33 | 61.34834 | -150.06487 | 5085 ft | 161 kts | 153° |
| 2026-04-22 11:33 | 61.33802 | -150.05389 | 4623 ft | 175 kts | 159° |
| 2026-04-22 11:34 | 61.32654 | -150.04464 | 3979 ft | 178 kts | 162° |
| 2026-04-22 11:34 | 61.31476 | -150.03742 | 3333 ft | 174 kts | 174° |
| 2026-04-22 11:34 | 61.30336 | -150.03691 | 3072 ft | 151 kts | 180° |
| 2026-04-22 11:34 | 61.29337 | -150.03669 | 3005 ft | 141 kts | 179° |
| 2026-04-22 11:35 | 61.28334 | -150.03607 | 2921 ft | 150 kts | 180° |
| 2026-04-22 11:35 | 61.27279 | -150.03564 | 2398 ft | 150 kts | 179° |
| 2026-04-22 11:35 | 61.26233 | -150.03594 | 1697 ft | 154 kts | 179° |
| 2026-04-22 11:35 | 61.25148 | -150.03561 | 1290 ft | 156 kts | 179° |
| 2026-04-22 11:36 | 61.24083 | -150.03483 | 942 ft | 151 kts | 173° |
| 2026-04-22 11:36 | 61.23033 | -150.03187 | 643 ft | 155 kts | 167° |
| 2026-04-22 11:36 | 61.21976 | -150.02613 | 444 ft | 155 kts | 162° |
| 2026-04-22 11:36 | 61.20967 | -150.02016 | 286 ft | 147 kts | 164° |
| 2026-04-22 11:37 | 61.20006 | -150.01477 | 165 ft | 138 kts | 164° |
| 2026-04-22 11:37 | 61.19195 | -150.01021 | 163 ft | 92 kts | 166° |
| 2026-04-22 11:37 | 61.18732 | -150.00755 | 163 ft | 62 kts | 160° |
| 2026-04-22 11:37 | 61.18481 | -150.00580 | 162 ft | 53 kts | 167° |
| 2026-04-22 11:38 | 61.18168 | -150.00452 | 162 ft | 31 kts | 160° |
| 2026-04-22 11:38 | 61.17998 | -150.00332 | 162 ft | 22 kts | 156° |
| 2026-04-22 11:38 | 61.17819 | -150.00080 | 162 ft | 11 kts | 138° |
| 2026-04-22 11:39 | 61.17770 | -149.99978 | 162 ft | 10 kts | 136° |
| 2026-04-22 11:39 | 61.17725 | -149.99900 | 162 ft | 3 kts | 146° |
| 2026-04-22 11:39 | 61.17701 | -149.99862 | 162 ft | 12 kts | 140° |
| 2026-04-22 11:39 | 61.17667 | -149.99673 | 162 ft | 19 kts | 69° |
| 2026-04-22 11:40 | 61.17665 | -149.99486 | 162 ft | 8 kts | 125° |
| 2026-04-22 11:40 | 61.17621 | -149.99409 | 162 ft | 13 kts | 157° |
| 2026-04-22 11:40 | 61.17533 | -149.99343 | 162 ft | 13 kts | 160° |
| 2026-04-22 11:40 | 61.17482 | -149.99303 | 162 ft | 0 kts | 162° |
| 2026-04-22 11:41 | 61.17465 | -149.99252 | 162 ft | 10 kts | 100° |
| 2026-04-22 11:41 | 61.17466 | -149.98975 | 162 ft | 14 kts | 95° |
| 2026-04-22 11:41 | 61.17463 | -149.98943 | 162 ft | 0 kts | 103° |
| 2026-04-22 11:42 | 61.17459 | -149.98908 | 162 ft | 9 kts | 108° |
| 2026-04-22 11:42 | 61.17425 | -149.98731 | 162 ft | 15 kts | 107° |
| 2026-04-22 11:42 | 61.17422 | -149.98542 | 162 ft | 15 kts | 87° |
| 2026-04-22 11:42 | 61.17432 | -149.98394 | 162 ft | 0 kts | 80° |
| 2026-04-22 11:43 | 61.17432 | -149.98393 | 162 ft | 0 kts | 80° |